createdAt,value
2019-01-23T00:01:05.592Z,8.2
2019-01-23T00:04:05.881Z,8.2
2019-01-23T00:07:05.587Z,8.2
2019-01-23T00:10:05.412Z,8.2
2019-01-23T00:13:05.863Z,8.2
2019-01-23T00:16:05.904Z,8.2
2019-01-23T00:19:05.501Z,8.2
2019-01-23T00:22:05.854Z,8.2
2019-01-23T00:25:05.644Z,8.2
2019-01-23T00:28:06.243Z,8.2
2019-01-23T00:31:05.908Z,8.2
2019-01-23T00:34:05.484Z,8.2
2019-01-23T00:37:05.805Z,8.2
2019-01-23T00:40:05.739Z,8.2
2019-01-23T00:43:05.426Z,8.2
2019-01-23T00:46:05.830Z,8.2
2019-01-23T00:49:05.540Z,8.2
2019-01-23T00:52:05.624Z,8.2
2019-01-23T00:55:05.732Z,8.2
2019-01-23T00:58:05.682Z,8.2
2019-01-23T01:01:05.618Z,8.2
2019-01-23T01:04:05.524Z,8.2
2019-01-23T01:07:05.878Z,8.2
2019-01-23T01:10:05.847Z,8.2
2019-01-23T01:13:05.741Z,8.2
2019-01-23T01:16:05.642Z,8.2
2019-01-23T01:19:05.908Z,8.2
2019-01-23T01:22:07.450Z,8.2
2019-01-23T01:25:06.269Z,8.2
2019-01-23T01:28:05.899Z,8.2
2019-01-23T01:31:05.435Z,8.2
2019-01-23T01:34:05.523Z,8.2
2019-01-23T01:37:05.583Z,8.2
2019-01-23T01:40:05.841Z,8.2
2019-01-23T01:43:06.008Z,8.2
2019-01-23T01:46:05.736Z,8.2
2019-01-23T01:49:05.826Z,8.2
2019-01-23T01:52:05.827Z,8.2
2019-01-23T01:55:05.798Z,8.2
2019-01-23T01:58:10.796Z,8.2
2019-01-23T02:01:05.521Z,8.1
2019-01-23T02:04:05.962Z,8.1
2019-01-23T02:07:05.978Z,8.1
2019-01-23T02:10:07.103Z,8.1
2019-01-23T02:13:07.159Z,8.1
2019-01-23T02:16:07.099Z,8.1
2019-01-23T02:19:07.112Z,8.1
2019-01-23T02:22:05.905Z,8.1
2019-01-23T02:25:05.471Z,8.1
2019-01-23T02:28:05.562Z,8.1
2019-01-23T02:31:05.761Z,8.1
2019-01-23T02:34:05.512Z,8.1
2019-01-23T02:37:05.884Z,8.1
2019-01-23T02:40:05.485Z,8.1
2019-01-23T02:43:05.821Z,8.1
2019-01-23T02:46:05.882Z,8.1
2019-01-23T02:49:05.899Z,8.1
2019-01-23T02:52:05.514Z,8.1
2019-01-23T02:55:05.957Z,8.1
2019-01-23T02:58:05.573Z,8.1
2019-01-23T03:01:05.852Z,7.9
2019-01-23T03:04:05.891Z,7.9
2019-01-23T03:07:07.411Z,7.9
2019-01-23T03:10:05.856Z,7.9
2019-01-23T03:13:05.891Z,7.9
2019-01-23T03:16:05.921Z,7.9
2019-01-23T03:19:05.889Z,7.9
2019-01-23T03:22:05.853Z,7.9
2019-01-23T03:25:05.797Z,7.9
2019-01-23T03:28:05.577Z,7.9
2019-01-23T03:31:06.301Z,7.9
2019-01-23T03:34:05.532Z,7.9
2019-01-23T03:37:05.898Z,7.9
2019-01-23T03:40:05.718Z,7.9
2019-01-23T03:43:05.913Z,7.9
2019-01-23T03:46:05.593Z,7.9
2019-01-23T03:49:05.519Z,7.9
2019-01-23T03:52:05.501Z,7.9
2019-01-23T03:55:05.675Z,7.9
2019-01-23T03:58:05.579Z,7.9
2019-01-23T04:01:05.444Z,7.7
2019-01-23T04:04:05.498Z,7.7
2019-01-23T04:07:11.142Z,7.7
2019-01-23T04:10:07.358Z,7.7
2019-01-23T04:13:06.092Z,7.7
2019-01-23T04:16:05.891Z,7.7
2019-01-23T04:19:05.743Z,7.7
2019-01-23T04:22:05.684Z,7.7
2019-01-23T04:25:05.963Z,7.7
2019-01-23T04:28:05.521Z,7.7
2019-01-23T04:31:05.521Z,7.7
2019-01-23T04:34:05.540Z,7.7
2019-01-23T04:37:05.442Z,7.7
2019-01-23T04:40:05.745Z,7.7
2019-01-23T04:43:05.405Z,7.7
2019-01-23T04:46:05.500Z,7.7
2019-01-23T04:49:05.531Z,7.7
2019-01-23T04:52:05.359Z,7.7
2019-01-23T04:55:05.486Z,7.7
2019-01-23T04:58:05.684Z,7.7
2019-01-23T05:01:05.845Z,7.6
2019-01-23T05:04:05.417Z,7.6
2019-01-23T05:07:05.645Z,7.6
2019-01-23T05:10:05.385Z,7.6
2019-01-23T05:13:05.361Z,7.6
2019-01-23T05:16:05.729Z,7.6
2019-01-23T05:19:05.431Z,7.6
2019-01-23T05:22:05.453Z,7.6
2019-01-23T05:25:08.808Z,7.6
2019-01-23T05:28:05.827Z,7.6
2019-01-23T05:31:05.557Z,7.6
2019-01-23T05:34:05.591Z,7.6
2019-01-23T05:37:05.702Z,7.6
2019-01-23T05:40:05.589Z,7.6
2019-01-23T05:43:05.983Z,7.6
2019-01-23T05:46:06.059Z,7.6
2019-01-23T05:49:05.426Z,7.6
2019-01-23T05:52:05.536Z,7.6
2019-01-23T05:55:05.627Z,7.6
2019-01-23T05:58:05.986Z,7.6
2019-01-23T06:01:06.531Z,7.4
2019-01-23T06:04:05.615Z,7.4
2019-01-23T06:07:05.713Z,7.4
2019-01-23T06:10:05.826Z,7.4
2019-01-23T06:13:06.193Z,7.4
2019-01-23T06:16:05.573Z,7.4
2019-01-23T06:19:05.926Z,7.4
2019-01-23T06:22:05.414Z,7.4
2019-01-23T06:25:06.152Z,7.4
2019-01-23T06:28:05.906Z,7.4
2019-01-23T06:31:05.476Z,7.4
2019-01-23T06:34:05.621Z,7.4
2019-01-23T06:37:05.302Z,7.4
2019-01-23T06:40:05.519Z,7.4
2019-01-23T06:43:06.031Z,7.4
2019-01-23T06:46:05.510Z,7.4
2019-01-23T06:49:05.936Z,7.4
2019-01-23T06:52:05.592Z,7.4
2019-01-23T06:55:06.009Z,7.4
2019-01-23T06:58:05.809Z,7.4
2019-01-23T07:01:05.727Z,7.2
2019-01-23T07:04:05.492Z,7.2
2019-01-23T07:07:06.900Z,7.2
2019-01-23T08:00:16.052Z,5.8
2019-01-23T08:03:15.457Z,5.8
2019-01-23T08:06:15.659Z,5.8
2019-01-23T08:09:15.788Z,5.8
2019-01-23T08:12:15.976Z,5.8
2019-01-23T08:15:15.720Z,5.8
2019-01-23T08:18:16.050Z,5.8
2019-01-23T08:21:15.990Z,5.8
2019-01-23T08:24:15.508Z,5.8
2019-01-23T08:27:15.610Z,5.8
2019-01-23T08:30:15.643Z,5.8
2019-01-23T08:33:15.757Z,5.8
2019-01-23T08:36:17.394Z,5.8
2019-01-23T08:39:15.460Z,5.8
2019-01-23T08:42:15.922Z,5.8
2019-01-23T08:45:15.573Z,5.8
2019-01-23T08:48:15.457Z,5.8
2019-01-23T08:51:15.560Z,5.8
2019-01-23T08:54:15.582Z,5.8
2019-01-23T08:57:15.508Z,5.8
2019-01-23T09:00:15.462Z,5.8
2019-01-23T09:03:15.432Z,5.8
2019-01-23T09:06:15.796Z,5.8
2019-01-23T09:09:16.198Z,5.8
2019-01-23T09:12:16.970Z,5.8
2019-01-23T09:15:15.763Z,5.8
2019-01-23T09:18:15.780Z,5.8
2019-01-23T09:21:16.098Z,5.8
2019-01-23T09:24:15.985Z,5.8
2019-01-23T09:27:15.638Z,5.8
2019-01-23T09:30:16.494Z,5.8
2019-01-23T09:33:15.569Z,5.8
2019-01-23T09:36:15.937Z,5.8
2019-01-23T09:39:16.462Z,5.8
2019-01-23T09:42:16.167Z,5.8
2019-01-23T09:45:15.503Z,5.8
2019-01-23T09:48:15.379Z,5.8
2019-01-23T09:51:15.420Z,5.8
2019-01-23T09:54:15.405Z,5.8
2019-01-23T09:57:15.451Z,5.8
2019-01-23T11:02:23.080Z,5.7
2019-01-23T11:05:23.003Z,5.7
2019-01-23T11:08:24.520Z,5.7
2019-01-23T11:11:23.469Z,5.7
2019-01-23T11:14:23.181Z,5.7
2019-01-23T11:17:23.061Z,5.7
2019-01-23T11:20:22.932Z,5.7
2019-01-23T11:23:22.454Z,5.7
2019-01-23T11:26:22.852Z,5.7
2019-01-23T11:29:22.801Z,5.7
2019-01-23T11:32:23.075Z,5.7
2019-01-23T11:35:22.828Z,5.7
2019-01-23T11:38:22.507Z,5.7
2019-01-23T11:41:23.214Z,5.7
2019-01-23T11:44:23.721Z,5.7
2019-01-23T11:47:22.648Z,5.7
2019-01-23T11:50:23.497Z,5.7
2019-01-23T11:53:22.731Z,5.7
2019-01-23T11:56:22.542Z,5.7
2019-01-23T11:59:22.902Z,5.7
2019-01-23T12:02:22.716Z,5.7
2019-01-23T12:05:23.457Z,5.7
2019-01-23T12:08:23.178Z,5.7
2019-01-23T12:11:22.792Z,5.7
2019-01-23T12:14:22.841Z,5.7
2019-01-23T12:17:22.515Z,5.7
2019-01-23T12:20:22.401Z,5.7
2019-01-23T12:23:22.505Z,5.7
2019-01-23T12:26:22.349Z,5.7
2019-01-23T12:29:22.733Z,5.7
2019-01-23T12:32:22.884Z,5.7
2019-01-23T12:35:22.855Z,5.7
2019-01-23T12:38:22.921Z,5.7
2019-01-23T12:41:22.480Z,5.7
2019-01-23T12:44:23.005Z,5.7
2019-01-23T12:47:22.818Z,5.7
2019-01-23T12:50:22.536Z,5.7
2019-01-23T12:53:24.338Z,5.7
2019-01-23T12:56:22.552Z,5.7
2019-01-23T12:59:22.906Z,5.7
2019-01-23T13:02:22.430Z,5.6
2019-01-23T13:05:22.363Z,5.6
2019-01-23T13:08:22.843Z,5.6
2019-01-23T13:11:22.773Z,5.6
2019-01-23T13:14:23.320Z,5.6
2019-01-23T13:17:23.707Z,5.6
2019-01-23T13:20:22.612Z,5.6
2019-01-23T13:23:22.392Z,5.6
2019-01-23T13:26:22.825Z,5.6
2019-01-23T13:29:23.501Z,5.6
2019-01-23T13:32:22.946Z,5.6
2019-01-23T13:35:23.066Z,5.6
2019-01-23T13:38:22.535Z,5.6
2019-01-23T13:41:22.515Z,5.6
2019-01-23T13:44:23.083Z,5.6
2019-01-23T13:47:22.744Z,5.6
2019-01-23T13:50:22.334Z,5.6
2019-01-23T13:53:23.216Z,5.6
2019-01-23T13:56:22.573Z,5.6
2019-01-23T13:59:22.324Z,5.6
2019-01-23T14:02:22.294Z,5.8
2019-01-23T14:05:22.989Z,5.8
2019-01-23T14:08:22.476Z,5.8
2019-01-23T14:11:22.900Z,5.8
2019-01-23T14:14:22.815Z,5.8
2019-01-23T14:17:23.359Z,5.8
2019-01-23T14:20:22.614Z,5.8
2019-01-23T14:23:23.094Z,5.8
2019-01-23T14:26:23.058Z,5.8
2019-01-23T14:29:22.356Z,5.8
2019-01-23T14:32:22.940Z,5.8
2019-01-23T14:35:22.741Z,5.8
2019-01-23T14:38:23.041Z,5.8
2019-01-23T14:41:23.407Z,5.8
2019-01-23T14:44:22.947Z,5.8
2019-01-23T14:47:22.953Z,5.8
2019-01-23T14:50:22.497Z,5.8
2019-01-23T14:53:22.465Z,5.8
2019-01-23T14:56:22.914Z,5.8
2019-01-23T14:59:22.521Z,5.8
2019-01-23T15:02:22.552Z,6
2019-01-23T15:05:23.113Z,6
2019-01-23T15:08:22.956Z,6
2019-01-23T15:11:22.530Z,6
2019-01-23T15:14:22.879Z,6
2019-01-23T15:17:22.734Z,6
2019-01-23T15:20:22.842Z,6
2019-01-23T15:23:23.286Z,6
2019-01-23T15:26:22.866Z,6
2019-01-23T15:29:22.457Z,6
2019-01-23T15:32:22.344Z,6
2019-01-23T15:35:22.802Z,6
2019-01-23T15:38:22.343Z,6
2019-01-23T15:41:22.762Z,6
2019-01-23T15:44:22.338Z,6
2019-01-23T15:47:22.396Z,6
2019-01-23T15:50:22.424Z,6
2019-01-23T15:53:22.623Z,6
2019-01-23T15:56:22.724Z,6
2019-01-23T15:59:22.648Z,6
2019-01-23T16:02:24.910Z,6
2019-01-23T16:05:22.364Z,6
2019-01-23T16:08:22.570Z,6
2019-01-23T16:11:22.993Z,6
2019-01-23T16:14:22.511Z,6
2019-01-23T16:17:23.164Z,6
2019-01-23T16:20:23.400Z,6
2019-01-23T16:23:22.902Z,6
2019-01-23T16:26:23.115Z,6
2019-01-23T16:29:22.274Z,6
2019-01-23T16:32:22.665Z,6
2019-01-23T16:35:24.903Z,6
2019-01-23T16:38:22.703Z,6
2019-01-23T16:41:22.485Z,6
2019-01-23T16:44:23.031Z,6
2019-01-23T16:47:24.760Z,6
2019-01-23T16:50:22.814Z,6
2019-01-23T16:53:22.410Z,6
2019-01-23T16:56:24.489Z,6
2019-01-23T16:59:22.840Z,6
2019-01-23T17:02:22.987Z,6.1
2019-01-23T17:05:22.588Z,6.1
2019-01-23T17:08:22.440Z,6.1
2019-01-23T17:11:22.933Z,6.1
2019-01-23T17:14:22.573Z,6.1
2019-01-23T17:17:23.002Z,6.1
2019-01-23T17:20:22.809Z,6.1
2019-01-23T17:23:22.497Z,6.1
2019-01-23T17:26:23.469Z,6.1
2019-01-23T17:29:22.642Z,6.1
2019-01-23T17:32:22.790Z,6.1
2019-01-23T17:35:23.225Z,6.1
2019-01-23T17:38:23.097Z,6.1
2019-01-23T17:41:22.835Z,6.1
2019-01-23T17:44:22.871Z,6.1
2019-01-23T17:47:22.883Z,6.1
2019-01-23T17:50:23.949Z,6.1
2019-01-23T17:53:23.625Z,6.1
2019-01-23T17:56:22.650Z,6.1
2019-01-23T17:59:24.384Z,6.1
2019-01-23T18:02:22.627Z,6.1
2019-01-23T18:05:22.509Z,6.1
2019-01-23T18:08:22.444Z,6.1
2019-01-23T18:11:22.272Z,6.1
2019-01-23T18:14:22.396Z,6.1
2019-01-23T18:17:22.557Z,6.1
2019-01-23T18:20:31.281Z,6.1
2019-01-23T18:23:22.982Z,6.1
2019-01-23T18:26:22.846Z,6.1
2019-01-23T18:29:22.414Z,6.1
2019-01-23T18:32:22.782Z,6.1
2019-01-23T18:35:23.408Z,6.1
2019-01-23T18:38:22.887Z,6.1
2019-01-23T18:41:25.212Z,6.1
2019-01-23T18:44:22.549Z,6.1
2019-01-23T18:47:23.538Z,6.1
2019-01-23T18:50:22.738Z,6.1
2019-01-23T18:53:22.446Z,6.1
2019-01-23T18:56:22.433Z,6.1
2019-01-23T18:59:22.790Z,6.1
2019-01-23T19:02:22.535Z,6.2
2019-01-23T19:05:22.538Z,6.2
2019-01-23T19:08:22.864Z,6.2
2019-01-23T19:11:24.040Z,6.2
2019-01-23T19:14:25.072Z,6.2
2019-01-23T19:17:22.521Z,6.2
2019-01-23T19:20:23.700Z,6.2
2019-01-23T19:23:22.639Z,6.2
2019-01-23T19:26:22.789Z,6.2
2019-01-23T19:29:23.511Z,6.2
2019-01-23T19:32:24.035Z,6.2
2019-01-23T19:35:24.622Z,6.2
2019-01-23T19:38:22.872Z,6.2
2019-01-23T19:41:22.280Z,6.2
2019-01-23T19:44:22.296Z,6.2
2019-01-23T19:47:24.541Z,6.2
2019-01-23T19:50:22.410Z,6.2
2019-01-23T19:53:24.629Z,6.2
2019-01-23T19:56:24.277Z,6.2
2019-01-23T19:59:22.503Z,6.2
2019-01-23T20:02:22.321Z,6.3
2019-01-23T20:05:24.285Z,6.3
2019-01-23T20:08:22.917Z,6.3
2019-01-23T20:11:23.260Z,6.3
2019-01-23T20:14:23.940Z,6.3
2019-01-23T20:17:25.100Z,6.3
2019-01-23T20:20:23.085Z,6.3
2019-01-23T20:23:23.451Z,6.3
2019-01-23T20:26:22.191Z,6.3
2019-01-23T20:29:22.287Z,6.3
2019-01-23T20:32:22.666Z,6.3
2019-01-23T20:35:22.439Z,6.3
2019-01-23T20:38:22.497Z,6.3
2019-01-23T20:41:22.514Z,6.3
2019-01-23T20:44:22.459Z,6.3
2019-01-23T20:47:22.518Z,6.3
2019-01-23T20:50:23.618Z,6.3
2019-01-23T20:53:22.609Z,6.3
2019-01-23T20:56:22.995Z,6.3
2019-01-23T20:59:22.536Z,6.3
2019-01-23T21:02:22.542Z,6.5
2019-01-23T21:05:22.459Z,6.5
2019-01-23T21:08:23.075Z,6.5
2019-01-23T21:11:22.821Z,6.5
2019-01-23T21:14:22.578Z,6.5
2019-01-23T21:17:23.000Z,6.5
2019-01-23T21:20:22.617Z,6.5
2019-01-23T21:23:22.751Z,6.5
2019-01-23T21:26:22.698Z,6.5
2019-01-23T21:29:22.683Z,6.5
2019-01-23T21:32:22.980Z,6.5
2019-01-23T21:35:22.708Z,6.5
2019-01-23T21:38:22.365Z,6.5
2019-01-23T21:41:22.858Z,6.5
2019-01-23T21:44:22.426Z,6.5
2019-01-23T21:47:22.982Z,6.5
2019-01-23T21:50:23.101Z,6.5
2019-01-23T21:53:22.501Z,6.5
2019-01-23T21:56:22.218Z,6.5
2019-01-23T21:59:22.490Z,6.5
2019-01-23T22:02:22.270Z,6.8
2019-01-23T22:05:22.323Z,6.8
2019-01-23T22:08:22.586Z,6.8
2019-01-23T22:11:28.084Z,6.8
2019-01-23T22:14:22.549Z,6.8
2019-01-23T22:17:22.264Z,6.8
2019-01-23T22:20:22.594Z,6.8
2019-01-23T22:23:22.606Z,6.8
2019-01-23T22:26:22.401Z,6.8
2019-01-23T22:29:22.291Z,6.8
2019-01-23T22:32:22.436Z,6.8
2019-01-23T22:35:22.063Z,6.8
2019-01-23T22:38:22.819Z,6.8
2019-01-23T22:41:22.230Z,6.8
2019-01-23T22:44:23.222Z,6.8
2019-01-23T22:47:22.783Z,6.8
2019-01-23T22:50:22.656Z,6.8
2019-01-23T22:53:22.395Z,6.8
2019-01-23T22:56:22.596Z,6.8
2019-01-23T22:59:22.527Z,6.8
2019-01-23T23:02:25.928Z,6.9
2019-01-23T23:05:24.193Z,6.9
2019-01-23T23:08:22.151Z,6.9
2019-01-23T23:11:24.147Z,6.9
2019-01-23T23:14:23.547Z,6.9
2019-01-23T23:17:22.693Z,6.9
2019-01-23T23:20:22.968Z,6.9
2019-01-23T23:23:22.651Z,6.9
2019-01-23T23:26:24.865Z,6.9
2019-01-23T23:29:25.187Z,6.9
2019-01-23T23:32:23.152Z,6.9
2019-01-23T23:35:22.184Z,6.9
2019-01-23T23:38:22.236Z,6.9
2019-01-23T23:41:22.183Z,6.9
2019-01-23T23:44:22.322Z,6.9
2019-01-23T23:47:22.562Z,6.9
2019-01-23T23:50:22.249Z,6.9
2019-01-23T23:53:22.457Z,6.9
2019-01-23T23:56:22.313Z,6.9
2019-01-23T23:59:22.305Z,6.9
